<?xml version="1.0" encoding="UTF-8" standalone="no" ?>
<gpx xmlns="http://www.topografix.com/GPX/1/1" xmlns:xsi="http://www.w3.org/2001/XMLSchema-instance" xsi:schemaLocation="http://www.topografix.com/GPX/1/1 http://www.topografix.com/GPX/1/1/gpx.xsd" version="1.1" creator="VisuGPX - https://www.visugpx.com">
  <metadata>
    <name>demi circuit rando lure saline </name>
  </metadata>
  <trk>
    <name><![CDATA[demi circuit rando lure saline _1]]></name>
    <trkseg>
      <trkpt lat="47.69692" lon="6.61289">
        <ele>352.8</ele>
        <time>2022-08-02T14:55:44.000Z</time>
      </trkpt>
      <trkpt lat="47.6969" lon="6.6128">
        <ele>352.8</ele>
        <time>2022-08-02T14:55:48.000Z</time>
      </trkpt>
      <trkpt lat="47.6967" lon="6.61267">
        <ele>352.8</ele>
        <time>2022-08-02T14:55:57.000Z</time>
      </trkpt>
      <trkpt lat="47.69663" lon="6.61256">
        <ele>352.1</ele>
        <time>2022-08-02T14:56:02.000Z</time>
      </trkpt>
      <trkpt lat="47.69647" lon="6.61116">
        <ele>351.6</ele>
        <time>2022-08-02T14:56:24.000Z</time>
      </trkpt>
      <trkpt lat="47.6964" lon="6.61075">
        <ele>351.6</ele>
        <time>2022-08-02T14:56:29.000Z</time>
      </trkpt>
      <trkpt lat="47.69629" lon="6.61034">
        <ele>350.6</ele>
        <time>2022-08-02T14:56:34.000Z</time>
      </trkpt>
      <trkpt lat="47.69601" lon="6.60955">
        <ele>350.6</ele>
        <time>2022-08-02T14:56:44.000Z</time>
      </trkpt>
      <trkpt lat="47.69591" lon="6.60932">
        <ele>350.6</ele>
        <time>2022-08-02T14:56:48.000Z</time>
      </trkpt>
      <trkpt lat="47.69585" lon="6.60923">
        <ele>350.6</ele>
        <time>2022-08-02T14:56:51.000Z</time>
      </trkpt>
      <trkpt lat="47.69573" lon="6.60926">
        <ele>351.2</ele>
        <time>2022-08-02T14:56:55.000Z</time>
      </trkpt>
      <trkpt lat="47.69476" lon="6.60994">
        <ele>350.2</ele>
        <time>2022-08-02T14:57:15.000Z</time>
      </trkpt>
      <trkpt lat="47.69409" lon="6.61046">
        <ele>350.5</ele>
        <time>2022-08-02T14:57:31.000Z</time>
      </trkpt>
      <trkpt lat="47.6937" lon="6.61069">
        <ele>350.5</ele>
        <time>2022-08-02T14:57:40.000Z</time>
      </trkpt>
      <trkpt lat="47.69334" lon="6.6108">
        <ele>350</ele>
        <time>2022-08-02T14:57:48.000Z</time>
      </trkpt>
      <trkpt lat="47.69279" lon="6.61079">
        <ele>350.6</ele>
        <time>2022-08-02T14:58:01.000Z</time>
      </trkpt>
      <trkpt lat="47.69222" lon="6.61099">
        <ele>350.8</ele>
        <time>2022-08-02T14:58:13.000Z</time>
      </trkpt>
      <trkpt lat="47.69199" lon="6.61102">
        <ele>350.8</ele>
        <time>2022-08-02T14:58:18.000Z</time>
      </trkpt>
      <trkpt lat="47.69177" lon="6.61094">
        <ele>351.8</ele>
        <time>2022-08-02T14:58:23.000Z</time>
      </trkpt>
      <trkpt lat="47.69129" lon="6.61056">
        <ele>351.8</ele>
        <time>2022-08-02T14:58:35.000Z</time>
      </trkpt>
      <trkpt lat="47.69103" lon="6.61042">
        <ele>351.8</ele>
        <time>2022-08-02T14:58:41.000Z</time>
      </trkpt>
      <trkpt lat="47.69042" lon="6.61028">
        <ele>354.5</ele>
        <time>2022-08-02T14:58:56.000Z</time>
      </trkpt>
      <trkpt lat="47.68964" lon="6.61024">
        <ele>359.4</ele>
        <time>2022-08-02T14:59:17.000Z</time>
      </trkpt>
      <trkpt lat="47.68881" lon="6.60991">
        <ele>360.8</ele>
        <time>2022-08-02T14:59:42.000Z</time>
      </trkpt>
      <trkpt lat="47.68813" lon="6.60947">
        <ele>364.7</ele>
        <time>2022-08-02T15:00:04.000Z</time>
      </trkpt>
      <trkpt lat="47.68778" lon="6.60911">
        <ele>367.2</ele>
        <time>2022-08-02T15:00:18.000Z</time>
      </trkpt>
      <trkpt lat="47.68749" lon="6.60868">
        <ele>369.7</ele>
        <time>2022-08-02T15:00:33.000Z</time>
      </trkpt>
      <trkpt lat="47.68724" lon="6.60849">
        <ele>371.6</ele>
        <time>2022-08-02T15:00:44.000Z</time>
      </trkpt>
      <trkpt lat="47.68691" lon="6.60844">
        <ele>372.5</ele>
        <time>2022-08-02T15:00:59.000Z</time>
      </trkpt>
      <trkpt lat="47.6864" lon="6.60853">
        <ele>374.7</ele>
        <time>2022-08-02T15:01:18.000Z</time>
      </trkpt>
      <trkpt lat="47.68604" lon="6.60853">
        <ele>377.2</ele>
        <time>2022-08-02T15:01:35.000Z</time>
      </trkpt>
      <trkpt lat="47.68589" lon="6.60847">
        <ele>377.2</ele>
        <time>2022-08-02T15:01:42.000Z</time>
      </trkpt>
      <trkpt lat="47.68589" lon="6.60837">
        <ele>378</ele>
        <time>2022-08-02T15:01:46.000Z</time>
      </trkpt>
      <trkpt lat="47.68595" lon="6.60827">
        <ele>378</ele>
        <time>2022-08-02T15:01:50.000Z</time>
      </trkpt>
      <trkpt lat="47.68646" lon="6.60764">
        <ele>379.7</ele>
        <time>2022-08-02T15:02:18.000Z</time>
      </trkpt>
      <trkpt lat="47.68666" lon="6.6071">
        <ele>381.5</ele>
        <time>2022-08-02T15:02:33.000Z</time>
      </trkpt>
      <trkpt lat="47.68674" lon="6.60663">
        <ele>382.5</ele>
        <time>2022-08-02T15:02:44.000Z</time>
      </trkpt>
      <trkpt lat="47.68705" lon="6.60532">
        <ele>388.9</ele>
        <time>2022-08-02T15:03:21.000Z</time>
      </trkpt>
      <trkpt lat="47.68708" lon="6.60512">
        <ele>389.8</ele>
        <time>2022-08-02T15:03:27.000Z</time>
      </trkpt>
      <trkpt lat="47.68707" lon="6.60479">
        <ele>392.1</ele>
        <time>2022-08-02T15:03:38.000Z</time>
      </trkpt>
      <trkpt lat="47.68717" lon="6.60427">
        <ele>393.3</ele>
        <time>2022-08-02T15:03:53.000Z</time>
      </trkpt>
      <trkpt lat="47.68731" lon="6.60357">
        <ele>394.4</ele>
        <time>2022-08-02T15:04:13.000Z</time>
      </trkpt>
      <trkpt lat="47.68748" lon="6.60305">
        <ele>394.4</ele>
        <time>2022-08-02T15:04:27.000Z</time>
      </trkpt>
      <trkpt lat="47.68758" lon="6.60252">
        <ele>393.6</ele>
        <time>2022-08-02T15:04:40.000Z</time>
      </trkpt>
      <trkpt lat="47.68784" lon="6.60151">
        <ele>391.5</ele>
        <time>2022-08-02T15:04:58.000Z</time>
      </trkpt>
      <trkpt lat="47.68807" lon="6.60016">
        <ele>387.9</ele>
        <time>2022-08-02T15:05:14.000Z</time>
      </trkpt>
      <trkpt lat="47.68847" lon="6.59833">
        <ele>385.1</ele>
        <time>2022-08-02T15:05:38.000Z</time>
      </trkpt>
      <trkpt lat="47.68901" lon="6.59571">
        <ele>375.5</ele>
        <time>2022-08-02T15:06:08.000Z</time>
      </trkpt>
      <trkpt lat="47.6891" lon="6.59503">
        <ele>373</ele>
        <time>2022-08-02T15:06:16.000Z</time>
      </trkpt>
      <trkpt lat="47.68905" lon="6.59481">
        <ele>371.5</ele>
        <time>2022-08-02T15:06:26.000Z</time>
      </trkpt>
      <trkpt lat="47.68906" lon="6.59467">
        <ele>370.9</ele>
        <time>2022-08-02T15:06:48.000Z</time>
      </trkpt>
      <trkpt lat="47.68865" lon="6.59456">
        <ele>371.5</ele>
        <time>2022-08-02T15:07:07.000Z</time>
      </trkpt>
      <trkpt lat="47.68838" lon="6.59437">
        <ele>372.2</ele>
        <time>2022-08-02T15:07:20.000Z</time>
      </trkpt>
      <trkpt lat="47.68835" lon="6.59421">
        <ele>372.2</ele>
        <time>2022-08-02T15:07:25.000Z</time>
      </trkpt>
      <trkpt lat="47.6884" lon="6.59391">
        <ele>370.1</ele>
        <time>2022-08-02T15:07:42.000Z</time>
      </trkpt>
      <trkpt lat="47.6884" lon="6.59404">
        <ele>370.1</ele>
        <time>2022-08-02T15:07:53.000Z</time>
      </trkpt>
      <trkpt lat="47.68835" lon="6.59414">
        <ele>370.7</ele>
        <time>2022-08-02T15:07:59.000Z</time>
      </trkpt>
      <trkpt lat="47.68828" lon="6.59413">
        <ele>370.7</ele>
        <time>2022-08-02T15:08:03.000Z</time>
      </trkpt>
      <trkpt lat="47.68819" lon="6.59402">
        <ele>370.7</ele>
        <time>2022-08-02T15:08:08.000Z</time>
      </trkpt>
      <trkpt lat="47.68775" lon="6.59327">
        <ele>369.8</ele>
        <time>2022-08-02T15:08:28.000Z</time>
      </trkpt>
      <trkpt lat="47.68707" lon="6.59225">
        <ele>366.6</ele>
        <time>2022-08-02T15:08:53.000Z</time>
      </trkpt>
      <trkpt lat="47.68683" lon="6.59176">
        <ele>364.7</ele>
        <time>2022-08-02T15:09:01.000Z</time>
      </trkpt>
      <trkpt lat="47.68627" lon="6.59088">
        <ele>363</ele>
        <time>2022-08-02T15:09:14.000Z</time>
      </trkpt>
      <trkpt lat="47.68603" lon="6.5906">
        <ele>360.5</ele>
        <time>2022-08-02T15:09:19.000Z</time>
      </trkpt>
      <trkpt lat="47.68509" lon="6.58973">
        <ele>355.5</ele>
        <time>2022-08-02T15:09:39.000Z</time>
      </trkpt>
      <trkpt lat="47.6851" lon="6.58966">
        <ele>355.5</ele>
        <time>2022-08-02T15:09:43.000Z</time>
      </trkpt>
      <trkpt lat="47.68527" lon="6.58944">
        <ele>355</ele>
        <time>2022-08-02T15:09:54.000Z</time>
      </trkpt>
      <trkpt lat="47.68552" lon="6.5887">
        <ele>356.2</ele>
        <time>2022-08-02T15:10:14.000Z</time>
      </trkpt>
      <trkpt lat="47.68565" lon="6.58787">
        <ele>355.7</ele>
        <time>2022-08-02T15:10:32.000Z</time>
      </trkpt>
      <trkpt lat="47.68566" lon="6.58749">
        <ele>355.7</ele>
        <time>2022-08-02T15:10:46.000Z</time>
      </trkpt>
      <trkpt lat="47.6856" lon="6.58702">
        <ele>355</ele>
        <time>2022-08-02T15:10:56.000Z</time>
      </trkpt>
      <trkpt lat="47.68555" lon="6.58597">
        <ele>355</ele>
        <time>2022-08-02T15:11:13.000Z</time>
      </trkpt>
      <trkpt lat="47.68566" lon="6.58453">
        <ele>351.4</ele>
        <time>2022-08-02T15:11:36.000Z</time>
      </trkpt>
      <trkpt lat="47.68565" lon="6.58426">
        <ele>350.4</ele>
        <time>2022-08-02T15:11:41.000Z</time>
      </trkpt>
      <trkpt lat="47.68533" lon="6.58306">
        <ele>350.4</ele>
        <time>2022-08-02T15:12:06.000Z</time>
      </trkpt>
      <trkpt lat="47.68519" lon="6.58223">
        <ele>349.9</ele>
        <time>2022-08-02T15:12:23.000Z</time>
      </trkpt>
      <trkpt lat="47.68487" lon="6.58167">
        <ele>351.7</ele>
        <time>2022-08-02T15:12:40.000Z</time>
      </trkpt>
      <trkpt lat="47.68456" lon="6.58049">
        <ele>351.7</ele>
        <time>2022-08-02T15:13:04.000Z</time>
      </trkpt>
      <trkpt lat="47.68428" lon="6.57972">
        <ele>351.7</ele>
        <time>2022-08-02T15:13:18.000Z</time>
      </trkpt>
      <trkpt lat="47.68403" lon="6.57883">
        <ele>350.2</ele>
        <time>2022-08-02T15:13:32.000Z</time>
      </trkpt>
      <trkpt lat="47.68361" lon="6.57786">
        <ele>349</ele>
        <time>2022-08-02T15:13:50.000Z</time>
      </trkpt>
      <trkpt lat="47.68325" lon="6.57689">
        <ele>349</ele>
        <time>2022-08-02T15:14:10.000Z</time>
      </trkpt>
      <trkpt lat="47.6831" lon="6.57637">
        <ele>348.1</ele>
        <time>2022-08-02T15:14:18.000Z</time>
      </trkpt>
      <trkpt lat="47.68294" lon="6.5756">
        <ele>347.4</ele>
        <time>2022-08-02T15:14:29.000Z</time>
      </trkpt>
      <trkpt lat="47.68261" lon="6.57466">
        <ele>346.4</ele>
        <time>2022-08-02T15:14:42.000Z</time>
      </trkpt>
      <trkpt lat="47.68254" lon="6.57434">
        <ele>345</ele>
        <time>2022-08-02T15:14:46.000Z</time>
      </trkpt>
      <trkpt lat="47.68252" lon="6.57277">
        <ele>340.1</ele>
        <time>2022-08-02T15:15:03.000Z</time>
      </trkpt>
      <trkpt lat="47.68254" lon="6.57248">
        <ele>340.1</ele>
        <time>2022-08-02T15:15:07.000Z</time>
      </trkpt>
      <trkpt lat="47.68259" lon="6.57227">
        <ele>338</ele>
        <time>2022-08-02T15:15:14.000Z</time>
      </trkpt>
      <trkpt lat="47.68274" lon="6.57223">
        <ele>338</ele>
        <time>2022-08-02T15:15:21.000Z</time>
      </trkpt>
      <trkpt lat="47.68294" lon="6.57226">
        <ele>337.5</ele>
        <time>2022-08-02T15:15:26.000Z</time>
      </trkpt>
      <trkpt lat="47.68348" lon="6.57255">
        <ele>336.1</ele>
        <time>2022-08-02T15:15:37.000Z</time>
      </trkpt>
      <trkpt lat="47.68364" lon="6.5726">
        <ele>336.1</ele>
        <time>2022-08-02T15:15:40.000Z</time>
      </trkpt>
      <trkpt lat="47.68384" lon="6.57253">
        <ele>336.1</ele>
        <time>2022-08-02T15:15:44.000Z</time>
      </trkpt>
      <trkpt lat="47.68397" lon="6.57231">
        <ele>336.1</ele>
        <time>2022-08-02T15:15:48.000Z</time>
      </trkpt>
      <trkpt lat="47.684" lon="6.57217">
        <ele>336.1</ele>
        <time>2022-08-02T15:15:50.000Z</time>
      </trkpt>
      <trkpt lat="47.68399" lon="6.57192">
        <ele>336.1</ele>
        <time>2022-08-02T15:15:53.000Z</time>
      </trkpt>
      <trkpt lat="47.68386" lon="6.57126">
        <ele>336.1</ele>
        <time>2022-08-02T15:16:01.000Z</time>
      </trkpt>
      <trkpt lat="47.68383" lon="6.57081">
        <ele>335.4</ele>
        <time>2022-08-02T15:16:06.000Z</time>
      </trkpt>
      <trkpt lat="47.6839" lon="6.57038">
        <ele>334.5</ele>
        <time>2022-08-02T15:16:11.000Z</time>
      </trkpt>
      <trkpt lat="47.68407" lon="6.57">
        <ele>334.5</ele>
        <time>2022-08-02T15:16:16.000Z</time>
      </trkpt>
      <trkpt lat="47.68432" lon="6.56975">
        <ele>334.5</ele>
        <time>2022-08-02T15:16:21.000Z</time>
      </trkpt>
      <trkpt lat="47.68454" lon="6.56971">
        <ele>334.5</ele>
        <time>2022-08-02T15:16:25.000Z</time>
      </trkpt>
      <trkpt lat="47.68483" lon="6.56982">
        <ele>333.9</ele>
        <time>2022-08-02T15:16:30.000Z</time>
      </trkpt>
      <trkpt lat="47.68535" lon="6.57018">
        <ele>334.5</ele>
        <time>2022-08-02T15:16:40.000Z</time>
      </trkpt>
      <trkpt lat="47.68553" lon="6.57021">
        <ele>335.3</ele>
        <time>2022-08-02T15:16:44.000Z</time>
      </trkpt>
      <trkpt lat="47.68563" lon="6.57015">
        <ele>335.3</ele>
        <time>2022-08-02T15:16:47.000Z</time>
      </trkpt>
      <trkpt lat="47.68571" lon="6.56996">
        <ele>335.3</ele>
        <time>2022-08-02T15:16:51.000Z</time>
      </trkpt>
      <trkpt lat="47.68573" lon="6.56979">
        <ele>334.8</ele>
        <time>2022-08-02T15:16:54.000Z</time>
      </trkpt>
      <trkpt lat="47.6857" lon="6.56956">
        <ele>334.8</ele>
        <time>2022-08-02T15:16:58.000Z</time>
      </trkpt>
      <trkpt lat="47.68556" lon="6.56923">
        <ele>334.8</ele>
        <time>2022-08-02T15:17:04.000Z</time>
      </trkpt>
      <trkpt lat="47.68522" lon="6.5686">
        <ele>334.8</ele>
        <time>2022-08-02T15:17:15.000Z</time>
      </trkpt>
      <trkpt lat="47.68508" lon="6.56841">
        <ele>334.8</ele>
        <time>2022-08-02T15:17:19.000Z</time>
      </trkpt>
      <trkpt lat="47.68496" lon="6.56831">
        <ele>334.8</ele>
        <time>2022-08-02T15:17:22.000Z</time>
      </trkpt>
      <trkpt lat="47.68469" lon="6.56829">
        <ele>333.9</ele>
        <time>2022-08-02T15:17:28.000Z</time>
      </trkpt>
      <trkpt lat="47.6841" lon="6.5685">
        <ele>333.3</ele>
        <time>2022-08-02T15:17:41.000Z</time>
      </trkpt>
      <trkpt lat="47.68398" lon="6.56848">
        <ele>333.3</ele>
        <time>2022-08-02T15:17:44.000Z</time>
      </trkpt>
      <trkpt lat="47.68387" lon="6.56841">
        <ele>333.3</ele>
        <time>2022-08-02T15:17:47.000Z</time>
      </trkpt>
      <trkpt lat="47.68371" lon="6.56818">
        <ele>333.3</ele>
        <time>2022-08-02T15:17:52.000Z</time>
      </trkpt>
      <trkpt lat="47.68302" lon="6.56677">
        <ele>332.6</ele>
        <time>2022-08-02T15:18:21.000Z</time>
      </trkpt>
      <trkpt lat="47.68291" lon="6.5667">
        <ele>332.6</ele>
        <time>2022-08-02T15:18:23.000Z</time>
      </trkpt>
      <trkpt lat="47.68249" lon="6.56621">
        <ele>332.6</ele>
        <time>2022-08-02T15:18:36.000Z</time>
      </trkpt>
      <trkpt lat="47.68212" lon="6.56589">
        <ele>331.9</ele>
        <time>2022-08-02T15:18:47.000Z</time>
      </trkpt>
      <trkpt lat="47.68136" lon="6.5655">
        <ele>331.9</ele>
        <time>2022-08-02T15:19:09.000Z</time>
      </trkpt>
      <trkpt lat="47.68103" lon="6.56526">
        <ele>331.9</ele>
        <time>2022-08-02T15:19:17.000Z</time>
      </trkpt>
      <trkpt lat="47.68073" lon="6.56495">
        <ele>331.9</ele>
        <time>2022-08-02T15:19:25.000Z</time>
      </trkpt>
      <trkpt lat="47.68042" lon="6.56453">
        <ele>331.9</ele>
        <time>2022-08-02T15:19:34.000Z</time>
      </trkpt>
      <trkpt lat="47.68018" lon="6.56403">
        <ele>331.9</ele>
        <time>2022-08-02T15:19:43.000Z</time>
      </trkpt>
      <trkpt lat="47.67983" lon="6.56287">
        <ele>331.5</ele>
        <time>2022-08-02T15:20:02.000Z</time>
      </trkpt>
      <trkpt lat="47.67935" lon="6.56165">
        <ele>331.8</ele>
        <time>2022-08-02T15:20:24.000Z</time>
      </trkpt>
      <trkpt lat="47.67798" lon="6.55844">
        <ele>329.3</ele>
        <time>2022-08-02T15:21:23.000Z</time>
      </trkpt>
      <trkpt lat="47.67748" lon="6.55715">
        <ele>329.3</ele>
        <time>2022-08-02T15:21:48.000Z</time>
      </trkpt>
      <trkpt lat="47.67726" lon="6.55681">
        <ele>328.2</ele>
        <time>2022-08-02T15:21:59.000Z</time>
      </trkpt>
      <trkpt lat="47.67693" lon="6.55653">
        <ele>328.2</ele>
        <time>2022-08-02T15:22:11.000Z</time>
      </trkpt>
      <trkpt lat="47.6763" lon="6.55583">
        <ele>328.1</ele>
        <time>2022-08-02T15:22:31.000Z</time>
      </trkpt>
      <trkpt lat="47.67599" lon="6.55537">
        <ele>327.6</ele>
        <time>2022-08-02T15:22:42.000Z</time>
      </trkpt>
      <trkpt lat="47.6758" lon="6.55499">
        <ele>327.6</ele>
        <time>2022-08-02T15:22:50.000Z</time>
      </trkpt>
      <trkpt lat="47.67541" lon="6.55406">
        <ele>327.5</ele>
        <time>2022-08-02T15:23:09.000Z</time>
      </trkpt>
      <trkpt lat="47.67424" lon="6.55198">
        <ele>327.2</ele>
        <time>2022-08-02T15:23:56.000Z</time>
      </trkpt>
      <trkpt lat="47.67382" lon="6.55109">
        <ele>327.2</ele>
        <time>2022-08-02T15:24:22.000Z</time>
      </trkpt>
      <trkpt lat="47.67385" lon="6.55111">
        <ele>326.7</ele>
        <time>2022-08-02T15:24:53.000Z</time>
      </trkpt>
      <trkpt lat="47.67386" lon="6.55106">
        <ele>326.7</ele>
        <time>2022-08-02T15:25:07.000Z</time>
      </trkpt>
      <trkpt lat="47.67283" lon="6.55095">
        <ele>326.7</ele>
        <time>2022-08-02T15:25:56.000Z</time>
      </trkpt>
      <trkpt lat="47.67246" lon="6.55084">
        <ele>326.1</ele>
        <time>2022-08-02T15:26:06.000Z</time>
      </trkpt>
      <trkpt lat="47.67197" lon="6.55053">
        <ele>326.1</ele>
        <time>2022-08-02T15:26:20.000Z</time>
      </trkpt>
      <trkpt lat="47.6709" lon="6.5497">
        <ele>325</ele>
        <time>2022-08-02T15:26:49.000Z</time>
      </trkpt>
      <trkpt lat="47.67074" lon="6.54961">
        <ele>325</ele>
        <time>2022-08-02T15:26:53.000Z</time>
      </trkpt>
      <trkpt lat="47.67056" lon="6.54964">
        <ele>325</ele>
        <time>2022-08-02T15:26:58.000Z</time>
      </trkpt>
      <trkpt lat="47.67026" lon="6.54992">
        <ele>325</ele>
        <time>2022-08-02T15:27:07.000Z</time>
      </trkpt>
      <trkpt lat="47.67008" lon="6.5499">
        <ele>325</ele>
        <time>2022-08-02T15:27:12.000Z</time>
      </trkpt>
      <trkpt lat="47.66924" lon="6.54899">
        <ele>324.5</ele>
        <time>2022-08-02T15:27:34.000Z</time>
      </trkpt>
      <trkpt lat="47.66866" lon="6.54824">
        <ele>324.5</ele>
        <time>2022-08-02T15:27:50.000Z</time>
      </trkpt>
      <trkpt lat="47.66841" lon="6.54799">
        <ele>323.6</ele>
        <time>2022-08-02T15:27:56.000Z</time>
      </trkpt>
      <trkpt lat="47.66799" lon="6.54775">
        <ele>322.9</ele>
        <time>2022-08-02T15:28:05.000Z</time>
      </trkpt>
      <trkpt lat="47.66732" lon="6.54764">
        <ele>322.9</ele>
        <time>2022-08-02T15:28:18.000Z</time>
      </trkpt>
      <trkpt lat="47.66703" lon="6.54752">
        <ele>322.9</ele>
        <time>2022-08-02T15:28:24.000Z</time>
      </trkpt>
      <trkpt lat="47.66664" lon="6.54715">
        <ele>322.9</ele>
        <time>2022-08-02T15:28:33.000Z</time>
      </trkpt>
      <trkpt lat="47.66645" lon="6.54682">
        <ele>322.9</ele>
        <time>2022-08-02T15:28:39.000Z</time>
      </trkpt>
      <trkpt lat="47.66638" lon="6.54641">
        <ele>322.9</ele>
        <time>2022-08-02T15:28:45.000Z</time>
      </trkpt>
      <trkpt lat="47.66642" lon="6.54549">
        <ele>322.9</ele>
        <time>2022-08-02T15:28:58.000Z</time>
      </trkpt>
      <trkpt lat="47.66639" lon="6.54505">
        <ele>325.5</ele>
        <time>2022-08-02T15:29:10.000Z</time>
      </trkpt>
      <trkpt lat="47.66657" lon="6.54492">
        <ele>325.5</ele>
        <time>2022-08-02T15:29:18.000Z</time>
      </trkpt>
      <trkpt lat="47.66751" lon="6.54446">
        <ele>324.7</ele>
        <time>2022-08-02T15:29:37.000Z</time>
      </trkpt>
      <trkpt lat="47.66787" lon="6.54413">
        <ele>323.9</ele>
        <time>2022-08-02T15:29:44.000Z</time>
      </trkpt>
      <trkpt lat="47.66808" lon="6.54383">
        <ele>323.9</ele>
        <time>2022-08-02T15:29:49.000Z</time>
      </trkpt>
      <trkpt lat="47.66835" lon="6.54328">
        <ele>323.9</ele>
        <time>2022-08-02T15:29:57.000Z</time>
      </trkpt>
      <trkpt lat="47.66865" lon="6.5425">
        <ele>323.9</ele>
        <time>2022-08-02T15:30:08.000Z</time>
      </trkpt>
      <trkpt lat="47.6687" lon="6.54223">
        <ele>323.9</ele>
        <time>2022-08-02T15:30:13.000Z</time>
      </trkpt>
      <trkpt lat="47.66864" lon="6.54209">
        <ele>324.7</ele>
        <time>2022-08-02T15:30:17.000Z</time>
      </trkpt>
      <trkpt lat="47.66848" lon="6.54199">
        <ele>323.8</ele>
        <time>2022-08-02T15:30:22.000Z</time>
      </trkpt>
      <trkpt lat="47.66787" lon="6.54198">
        <ele>323.2</ele>
        <time>2022-08-02T15:30:37.000Z</time>
      </trkpt>
      <trkpt lat="47.6676" lon="6.54182">
        <ele>323.2</ele>
        <time>2022-08-02T15:30:43.000Z</time>
      </trkpt>
      <trkpt lat="47.66656" lon="6.54057">
        <ele>322.7</ele>
        <time>2022-08-02T15:31:09.000Z</time>
      </trkpt>
      <trkpt lat="47.66628" lon="6.54015">
        <ele>322.7</ele>
        <time>2022-08-02T15:31:17.000Z</time>
      </trkpt>
      <trkpt lat="47.66551" lon="6.53827">
        <ele>321.8</ele>
        <time>2022-08-02T15:31:46.000Z</time>
      </trkpt>
      <trkpt lat="47.66545" lon="6.53796">
        <ele>321</ele>
        <time>2022-08-02T15:31:51.000Z</time>
      </trkpt>
      <trkpt lat="47.66547" lon="6.53786">
        <ele>321.5</ele>
        <time>2022-08-02T15:31:53.000Z</time>
      </trkpt>
      <trkpt lat="47.66553" lon="6.53776">
        <ele>321.5</ele>
        <time>2022-08-02T15:31:56.000Z</time>
      </trkpt>
      <trkpt lat="47.66593" lon="6.53759">
        <ele>323.1</ele>
        <time>2022-08-02T15:32:07.000Z</time>
      </trkpt>
      <trkpt lat="47.66616" lon="6.53737">
        <ele>323.8</ele>
        <time>2022-08-02T15:32:14.000Z</time>
      </trkpt>
      <trkpt lat="47.66648" lon="6.53689">
        <ele>323.8</ele>
        <time>2022-08-02T15:32:25.000Z</time>
      </trkpt>
      <trkpt lat="47.66652" lon="6.53675">
        <ele>323.8</ele>
        <time>2022-08-02T15:32:28.000Z</time>
      </trkpt>
      <trkpt lat="47.66652" lon="6.53663">
        <ele>323.8</ele>
        <time>2022-08-02T15:32:31.000Z</time>
      </trkpt>
      <trkpt lat="47.66613" lon="6.53604">
        <ele>322.9</ele>
        <time>2022-08-02T15:32:46.000Z</time>
      </trkpt>
      <trkpt lat="47.66559" lon="6.53503">
        <ele>321.9</ele>
        <time>2022-08-02T15:33:04.000Z</time>
      </trkpt>
      <trkpt lat="47.66466" lon="6.53354">
        <ele>321.9</ele>
        <time>2022-08-02T15:33:31.000Z</time>
      </trkpt>
      <trkpt lat="47.66443" lon="6.5331">
        <ele>320.3</ele>
        <time>2022-08-02T15:33:38.000Z</time>
      </trkpt>
      <trkpt lat="47.66438" lon="6.53295">
        <ele>320.3</ele>
        <time>2022-08-02T15:33:40.000Z</time>
      </trkpt>
      <trkpt lat="47.66425" lon="6.53283">
        <ele>320.3</ele>
        <time>2022-08-02T15:33:43.000Z</time>
      </trkpt>
      <trkpt lat="47.66413" lon="6.53282">
        <ele>321</ele>
        <time>2022-08-02T15:33:47.000Z</time>
      </trkpt>
      <trkpt lat="47.66406" lon="6.53269">
        <ele>321</ele>
        <time>2022-08-02T15:33:50.000Z</time>
      </trkpt>
      <trkpt lat="47.66405" lon="6.53262">
        <ele>321</ele>
        <time>2022-08-02T15:33:51.000Z</time>
      </trkpt>
      <trkpt lat="47.66408" lon="6.53254">
        <ele>321</ele>
        <time>2022-08-02T15:33:52.000Z</time>
      </trkpt>
      <trkpt lat="47.6641" lon="6.53228">
        <ele>321</ele>
        <time>2022-08-02T15:33:56.000Z</time>
      </trkpt>
      <trkpt lat="47.66431" lon="6.53129">
        <ele>321</ele>
        <time>2022-08-02T15:34:11.000Z</time>
      </trkpt>
      <trkpt lat="47.66466" lon="6.53007">
        <ele>321</ele>
        <time>2022-08-02T15:34:29.000Z</time>
      </trkpt>
      <trkpt lat="47.66497" lon="6.52919">
        <ele>321</ele>
        <time>2022-08-02T15:34:42.000Z</time>
      </trkpt>
      <trkpt lat="47.66563" lon="6.52785">
        <ele>321</ele>
        <time>2022-08-02T15:35:04.000Z</time>
      </trkpt>
      <trkpt lat="47.66572" lon="6.52753">
        <ele>321</ele>
        <time>2022-08-02T15:35:09.000Z</time>
      </trkpt>
      <trkpt lat="47.6657" lon="6.52717">
        <ele>321</ele>
        <time>2022-08-02T15:35:14.000Z</time>
      </trkpt>
      <trkpt lat="47.66554" lon="6.52659">
        <ele>320.4</ele>
        <time>2022-08-02T15:35:22.000Z</time>
      </trkpt>
      <trkpt lat="47.6654" lon="6.52629">
        <ele>321.1</ele>
        <time>2022-08-02T15:35:27.000Z</time>
      </trkpt>
      <trkpt lat="47.66491" lon="6.52545">
        <ele>321.1</ele>
        <time>2022-08-02T15:35:42.000Z</time>
      </trkpt>
      <trkpt lat="47.66475" lon="6.52505">
        <ele>321.1</ele>
        <time>2022-08-02T15:35:48.000Z</time>
      </trkpt>
      <trkpt lat="47.66471" lon="6.5248">
        <ele>321.1</ele>
        <time>2022-08-02T15:35:52.000Z</time>
      </trkpt>
      <trkpt lat="47.66473" lon="6.5247">
        <ele>320.1</ele>
        <time>2022-08-02T15:35:54.000Z</time>
      </trkpt>
      <trkpt lat="47.66481" lon="6.52458">
        <ele>320.1</ele>
        <time>2022-08-02T15:35:57.000Z</time>
      </trkpt>
      <trkpt lat="47.66522" lon="6.52431">
        <ele>319.4</ele>
        <time>2022-08-02T15:36:08.000Z</time>
      </trkpt>
      <trkpt lat="47.66558" lon="6.52379">
        <ele>318.6</ele>
        <time>2022-08-02T15:36:19.000Z</time>
      </trkpt>
      <trkpt lat="47.66598" lon="6.52337">
        <ele>318.6</ele>
        <time>2022-08-02T15:36:31.000Z</time>
      </trkpt>
      <trkpt lat="47.66617" lon="6.52327">
        <ele>318.6</ele>
        <time>2022-08-02T15:36:36.000Z</time>
      </trkpt>
      <trkpt lat="47.66644" lon="6.52321">
        <ele>317.9</ele>
        <time>2022-08-02T15:36:42.000Z</time>
      </trkpt>
      <trkpt lat="47.66661" lon="6.52312">
        <ele>317.9</ele>
        <time>2022-08-02T15:36:46.000Z</time>
      </trkpt>
      <trkpt lat="47.66709" lon="6.52265">
        <ele>319</ele>
        <time>2022-08-02T15:37:00.000Z</time>
      </trkpt>
      <trkpt lat="47.6674" lon="6.52211">
        <ele>319</ele>
        <time>2022-08-02T15:37:11.000Z</time>
      </trkpt>
      <trkpt lat="47.66772" lon="6.52128">
        <ele>319</ele>
        <time>2022-08-02T15:37:26.000Z</time>
      </trkpt>
      <trkpt lat="47.66787" lon="6.52109">
        <ele>319</ele>
        <time>2022-08-02T15:37:31.000Z</time>
      </trkpt>
      <trkpt lat="47.66805" lon="6.52101">
        <ele>319</ele>
        <time>2022-08-02T15:37:36.000Z</time>
      </trkpt>
      <trkpt lat="47.66843" lon="6.52113">
        <ele>318</ele>
        <time>2022-08-02T15:37:46.000Z</time>
      </trkpt>
      <trkpt lat="47.66855" lon="6.52108">
        <ele>318</ele>
        <time>2022-08-02T15:37:51.000Z</time>
      </trkpt>
      <trkpt lat="47.6687" lon="6.52061">
        <ele>318</ele>
        <time>2022-08-02T15:38:02.000Z</time>
      </trkpt>
      <trkpt lat="47.66871" lon="6.5203">
        <ele>318</ele>
        <time>2022-08-02T15:38:08.000Z</time>
      </trkpt>
      <trkpt lat="47.66863" lon="6.52012">
        <ele>318</ele>
        <time>2022-08-02T15:38:12.000Z</time>
      </trkpt>
      <trkpt lat="47.66828" lon="6.51965">
        <ele>318</ele>
        <time>2022-08-02T15:38:23.000Z</time>
      </trkpt>
      <trkpt lat="47.6682" lon="6.51942">
        <ele>318</ele>
        <time>2022-08-02T15:38:27.000Z</time>
      </trkpt>
      <trkpt lat="47.6682" lon="6.51924">
        <ele>318</ele>
        <time>2022-08-02T15:38:30.000Z</time>
      </trkpt>
      <trkpt lat="47.66825" lon="6.51908">
        <ele>318</ele>
        <time>2022-08-02T15:38:33.000Z</time>
      </trkpt>
      <trkpt lat="47.66834" lon="6.51895">
        <ele>317.1</ele>
        <time>2022-08-02T15:38:36.000Z</time>
      </trkpt>
      <trkpt lat="47.66888" lon="6.51849">
        <ele>317.2</ele>
        <time>2022-08-02T15:38:51.000Z</time>
      </trkpt>
      <trkpt lat="47.66895" lon="6.51837">
        <ele>317.2</ele>
        <time>2022-08-02T15:38:54.000Z</time>
      </trkpt>
      <trkpt lat="47.66897" lon="6.51827">
        <ele>317.2</ele>
        <time>2022-08-02T15:38:57.000Z</time>
      </trkpt>
      <trkpt lat="47.66894" lon="6.51814">
        <ele>317.9</ele>
        <time>2022-08-02T15:39:01.000Z</time>
      </trkpt>
      <trkpt lat="47.66863" lon="6.51741">
        <ele>317.9</ele>
        <time>2022-08-02T15:39:17.000Z</time>
      </trkpt>
      <trkpt lat="47.6684" lon="6.51702">
        <ele>317.9</ele>
        <time>2022-08-02T15:39:25.000Z</time>
      </trkpt>
      <trkpt lat="47.66772" lon="6.51622">
        <ele>316.5</ele>
        <time>2022-08-02T15:39:44.000Z</time>
      </trkpt>
      <trkpt lat="47.66735" lon="6.51553">
        <ele>316.5</ele>
        <time>2022-08-02T15:39:56.000Z</time>
      </trkpt>
      <trkpt lat="47.66701" lon="6.51516">
        <ele>316.5</ele>
        <time>2022-08-02T15:40:09.000Z</time>
      </trkpt>
      <trkpt lat="47.66665" lon="6.51455">
        <ele>316.5</ele>
        <time>2022-08-02T15:40:22.000Z</time>
      </trkpt>
      <trkpt lat="47.6665" lon="6.51441">
        <ele>316.5</ele>
        <time>2022-08-02T15:40:27.000Z</time>
      </trkpt>
      <trkpt lat="47.66607" lon="6.51426">
        <ele>315.9</ele>
        <time>2022-08-02T15:40:40.000Z</time>
      </trkpt>
      <trkpt lat="47.66581" lon="6.51403">
        <ele>315.9</ele>
        <time>2022-08-02T15:40:48.000Z</time>
      </trkpt>
      <trkpt lat="47.66569" lon="6.5138">
        <ele>315.9</ele>
        <time>2022-08-02T15:40:53.000Z</time>
      </trkpt>
      <trkpt lat="47.66567" lon="6.51355">
        <ele>315.9</ele>
        <time>2022-08-02T15:40:58.000Z</time>
      </trkpt>
      <trkpt lat="47.6657" lon="6.51342">
        <ele>315.9</ele>
        <time>2022-08-02T15:41:01.000Z</time>
      </trkpt>
      <trkpt lat="47.66577" lon="6.51329">
        <ele>316.6</ele>
        <time>2022-08-02T15:41:06.000Z</time>
      </trkpt>
      <trkpt lat="47.66605" lon="6.51328">
        <ele>316.6</ele>
        <time>2022-08-02T15:41:19.000Z</time>
      </trkpt>
      <trkpt lat="47.66619" lon="6.51321">
        <ele>316</ele>
        <time>2022-08-02T15:41:24.000Z</time>
      </trkpt>
      <trkpt lat="47.66722" lon="6.5122">
        <ele>316.6</ele>
        <time>2022-08-02T15:41:52.000Z</time>
      </trkpt>
      <trkpt lat="47.66765" lon="6.51183">
        <ele>316.6</ele>
        <time>2022-08-02T15:42:04.000Z</time>
      </trkpt>
      <trkpt lat="47.66779" lon="6.51165">
        <ele>316.6</ele>
        <time>2022-08-02T15:42:09.000Z</time>
      </trkpt>
      <trkpt lat="47.66807" lon="6.51114">
        <ele>316.6</ele>
        <time>2022-08-02T15:42:20.000Z</time>
      </trkpt>
      <trkpt lat="47.6682" lon="6.51098">
        <ele>316.6</ele>
        <time>2022-08-02T15:42:24.000Z</time>
      </trkpt>
      <trkpt lat="47.66835" lon="6.51087">
        <ele>316.6</ele>
        <time>2022-08-02T15:42:28.000Z</time>
      </trkpt>
      <trkpt lat="47.66869" lon="6.51073">
        <ele>316.6</ele>
        <time>2022-08-02T15:42:37.000Z</time>
      </trkpt>
      <trkpt lat="47.66887" lon="6.51055">
        <ele>317.4</ele>
        <time>2022-08-02T15:42:43.000Z</time>
      </trkpt>
      <trkpt lat="47.67098" lon="6.50727">
        <ele>318</ele>
        <time>2022-08-02T15:43:59.000Z</time>
      </trkpt>
      <trkpt lat="47.67099" lon="6.50717">
        <ele>318</ele>
        <time>2022-08-02T15:44:03.000Z</time>
      </trkpt>
      <trkpt lat="47.67087" lon="6.50693">
        <ele>318</ele>
        <time>2022-08-02T15:44:11.000Z</time>
      </trkpt>
      <trkpt lat="47.67085" lon="6.50674">
        <ele>318</ele>
        <time>2022-08-02T15:44:15.000Z</time>
      </trkpt>
      <trkpt lat="47.67108" lon="6.50588">
        <ele>317.3</ele>
        <time>2022-08-02T15:44:30.000Z</time>
      </trkpt>
      <trkpt lat="47.67109" lon="6.50572">
        <ele>316.7</ele>
        <time>2022-08-02T15:44:34.000Z</time>
      </trkpt>
      <trkpt lat="47.67104" lon="6.5056">
        <ele>316.7</ele>
        <time>2022-08-02T15:44:38.000Z</time>
      </trkpt>
      <trkpt lat="47.67037" lon="6.5048">
        <ele>316.7</ele>
        <time>2022-08-02T15:45:01.000Z</time>
      </trkpt>
      <trkpt lat="47.66865" lon="6.50321">
        <ele>316.1</ele>
        <time>2022-08-02T15:45:45.000Z</time>
      </trkpt>
      <trkpt lat="47.66777" lon="6.50222">
        <ele>316.9</ele>
        <time>2022-08-02T15:46:09.000Z</time>
      </trkpt>
      <trkpt lat="47.66688" lon="6.50153">
        <ele>316.2</ele>
        <time>2022-08-02T15:46:30.000Z</time>
      </trkpt>
      <trkpt lat="47.66665" lon="6.50145">
        <ele>316.2</ele>
        <time>2022-08-02T15:46:35.000Z</time>
      </trkpt>
      <trkpt lat="47.66615" lon="6.50142">
        <ele>316.2</ele>
        <time>2022-08-02T15:46:47.000Z</time>
      </trkpt>
      <trkpt lat="47.66605" lon="6.50138">
        <ele>316.2</ele>
        <time>2022-08-02T15:46:52.000Z</time>
      </trkpt>
      <trkpt lat="47.66598" lon="6.50123">
        <ele>316.2</ele>
        <time>2022-08-02T15:46:58.000Z</time>
      </trkpt>
      <trkpt lat="47.66586" lon="6.50071">
        <ele>315.3</ele>
        <time>2022-08-02T15:47:09.000Z</time>
      </trkpt>
      <trkpt lat="47.66578" lon="6.50057">
        <ele>315.3</ele>
        <time>2022-08-02T15:47:13.000Z</time>
      </trkpt>
      <trkpt lat="47.66568" lon="6.50048">
        <ele>315.9</ele>
        <time>2022-08-02T15:47:18.000Z</time>
      </trkpt>
      <trkpt lat="47.66555" lon="6.50051">
        <ele>315.9</ele>
        <time>2022-08-02T15:47:24.000Z</time>
      </trkpt>
      <trkpt lat="47.66527" lon="6.50069">
        <ele>315.9</ele>
        <time>2022-08-02T15:47:33.000Z</time>
      </trkpt>
      <trkpt lat="47.66485" lon="6.50105">
        <ele>315.9</ele>
        <time>2022-08-02T15:47:47.000Z</time>
      </trkpt>
      <trkpt lat="47.66466" lon="6.50126">
        <ele>315.9</ele>
        <time>2022-08-02T15:47:53.000Z</time>
      </trkpt>
      <trkpt lat="47.66456" lon="6.50147">
        <ele>315.9</ele>
        <time>2022-08-02T15:47:58.000Z</time>
      </trkpt>
      <trkpt lat="47.66446" lon="6.50187">
        <ele>316.5</ele>
        <time>2022-08-02T15:48:06.000Z</time>
      </trkpt>
      <trkpt lat="47.66435" lon="6.50216">
        <ele>316.5</ele>
        <time>2022-08-02T15:48:12.000Z</time>
      </trkpt>
      <trkpt lat="47.66402" lon="6.50268">
        <ele>316.5</ele>
        <time>2022-08-02T15:48:27.000Z</time>
      </trkpt>
      <trkpt lat="47.66387" lon="6.50299">
        <ele>316.5</ele>
        <time>2022-08-02T15:48:53.000Z</time>
      </trkpt>
      <trkpt lat="47.66375" lon="6.50312">
        <ele>315.9</ele>
        <time>2022-08-02T15:48:59.000Z</time>
      </trkpt>
      <trkpt lat="47.66365" lon="6.50316">
        <ele>315.9</ele>
        <time>2022-08-02T15:49:04.000Z</time>
      </trkpt>
      <trkpt lat="47.66343" lon="6.50317">
        <ele>315.3</ele>
        <time>2022-08-02T15:49:14.000Z</time>
      </trkpt>
      <trkpt lat="47.66316" lon="6.50349">
        <ele>314.4</ele>
        <time>2022-08-02T15:49:32.000Z</time>
      </trkpt>
      <trkpt lat="47.6631" lon="6.50323">
        <ele>314.4</ele>
        <time>2022-08-02T15:49:49.000Z</time>
      </trkpt>
      <trkpt lat="47.66285" lon="6.50304">
        <ele>313.8</ele>
        <time>2022-08-02T15:50:00.000Z</time>
      </trkpt>
      <trkpt lat="47.66275" lon="6.50292">
        <ele>314.6</ele>
        <time>2022-08-02T15:50:19.000Z</time>
      </trkpt>
      <trkpt lat="47.66279" lon="6.50291">
        <ele>313.9</ele>
        <time>2022-08-02T15:51:24.000Z</time>
      </trkpt>
      <trkpt lat="47.66274" lon="6.5029">
        <ele>313.9</ele>
        <time>2022-08-02T15:51:54.000Z</time>
      </trkpt>
      <trkpt lat="47.66273" lon="6.50285">
        <ele>313.9</ele>
        <time>2022-08-02T15:52:07.000Z</time>
      </trkpt>
      <trkpt lat="47.66279" lon="6.50294">
        <ele>313.9</ele>
        <time>2022-08-02T15:53:18.000Z</time>
      </trkpt>
      <trkpt lat="47.66274" lon="6.50292">
        <ele>313.9</ele>
        <time>2022-08-02T15:54:18.000Z</time>
      </trkpt>
      <trkpt lat="47.66274" lon="6.50288">
        <ele>313.9</ele>
        <time>2022-08-02T15:54:33.000Z</time>
      </trkpt>
      <trkpt lat="47.66277" lon="6.5029">
        <ele>313.9</ele>
        <time>2022-08-02T15:54:38.000Z</time>
      </trkpt>
      <trkpt lat="47.66311" lon="6.50325">
        <ele>313.9</ele>
        <time>2022-08-02T15:54:57.000Z</time>
      </trkpt>
      <trkpt lat="47.66314" lon="6.50333">
        <ele>313.9</ele>
        <time>2022-08-02T15:55:01.000Z</time>
      </trkpt>
      <trkpt lat="47.66312" lon="6.50346">
        <ele>313.9</ele>
        <time>2022-08-02T15:55:16.000Z</time>
      </trkpt>
      <trkpt lat="47.66315" lon="6.5034">
        <ele>314.5</ele>
        <time>2022-08-02T15:56:02.000Z</time>
      </trkpt>
      <trkpt lat="47.66312" lon="6.50348">
        <ele>313.9</ele>
        <time>2022-08-02T15:57:10.000Z</time>
      </trkpt>
      <trkpt lat="47.66316" lon="6.50342">
        <ele>313.9</ele>
        <time>2022-08-02T15:57:20.000Z</time>
      </trkpt>
      <trkpt lat="47.66355" lon="6.50334">
        <ele>314.7</ele>
        <time>2022-08-02T15:57:40.000Z</time>
      </trkpt>
      <trkpt lat="47.66378" lon="6.50315">
        <ele>315.3</ele>
        <time>2022-08-02T15:57:53.000Z</time>
      </trkpt>
      <trkpt lat="47.66384" lon="6.50314">
        <ele>316.2</ele>
        <time>2022-08-02T15:57:58.000Z</time>
      </trkpt>
      <trkpt lat="47.66383" lon="6.50318">
        <ele>316.2</ele>
        <time>2022-08-02T15:58:03.000Z</time>
      </trkpt>
      <trkpt lat="47.6638" lon="6.50319">
        <ele>316.2</ele>
        <time>2022-08-02T15:58:10.000Z</time>
      </trkpt>
      <trkpt lat="47.6638" lon="6.50315">
        <ele>316.2</ele>
        <time>2022-08-02T15:58:14.000Z</time>
      </trkpt>
      <trkpt lat="47.66393" lon="6.50295">
        <ele>316.2</ele>
        <time>2022-08-02T15:58:24.000Z</time>
      </trkpt>
      <trkpt lat="47.6641" lon="6.50255">
        <ele>316.2</ele>
        <time>2022-08-02T15:58:37.000Z</time>
      </trkpt>
      <trkpt lat="47.66429" lon="6.50224">
        <ele>316.2</ele>
        <time>2022-08-02T15:58:47.000Z</time>
      </trkpt>
      <trkpt lat="47.66438" lon="6.50215">
        <ele>316.2</ele>
        <time>2022-08-02T15:58:51.000Z</time>
      </trkpt>
      <trkpt lat="47.66481" lon="6.50203">
        <ele>316.3</ele>
        <time>2022-08-02T15:59:03.000Z</time>
      </trkpt>
      <trkpt lat="47.66553" lon="6.50158">
        <ele>315.4</ele>
        <time>2022-08-02T15:59:21.000Z</time>
      </trkpt>
      <trkpt lat="47.66589" lon="6.50141">
        <ele>315.4</ele>
        <time>2022-08-02T15:59:31.000Z</time>
      </trkpt>
      <trkpt lat="47.66645" lon="6.50143">
        <ele>316.4</ele>
        <time>2022-08-02T15:59:48.000Z</time>
      </trkpt>
      <trkpt lat="47.66682" lon="6.5015">
        <ele>315.9</ele>
        <time>2022-08-02T15:59:57.000Z</time>
      </trkpt>
      <trkpt lat="47.66705" lon="6.50163">
        <ele>315.9</ele>
        <time>2022-08-02T16:00:03.000Z</time>
      </trkpt>
      <trkpt lat="47.66786" lon="6.50232">
        <ele>316.5</ele>
        <time>2022-08-02T16:00:25.000Z</time>
      </trkpt>
      <trkpt lat="47.66858" lon="6.50314">
        <ele>317.1</ele>
        <time>2022-08-02T16:00:45.000Z</time>
      </trkpt>
      <trkpt lat="47.66971" lon="6.50429">
        <ele>317.1</ele>
        <time>2022-08-02T16:01:15.000Z</time>
      </trkpt>
      <trkpt lat="47.67037" lon="6.50489">
        <ele>317.1</ele>
        <time>2022-08-02T16:01:32.000Z</time>
      </trkpt>
      <trkpt lat="47.67079" lon="6.50541">
        <ele>317.1</ele>
        <time>2022-08-02T16:01:48.000Z</time>
      </trkpt>
      <trkpt lat="47.671" lon="6.50562">
        <ele>317.1</ele>
        <time>2022-08-02T16:01:56.000Z</time>
      </trkpt>
      <trkpt lat="47.67107" lon="6.50577">
        <ele>317.1</ele>
        <time>2022-08-02T16:02:01.000Z</time>
      </trkpt>
      <trkpt lat="47.67101" lon="6.50608">
        <ele>317.1</ele>
        <time>2022-08-02T16:02:08.000Z</time>
      </trkpt>
      <trkpt lat="47.67078" lon="6.50687">
        <ele>317.6</ele>
        <time>2022-08-02T16:02:25.000Z</time>
      </trkpt>
      <trkpt lat="47.67079" lon="6.50696">
        <ele>317.6</ele>
        <time>2022-08-02T16:02:28.000Z</time>
      </trkpt>
      <trkpt lat="47.6709" lon="6.50723">
        <ele>318.3</ele>
        <time>2022-08-02T16:02:36.000Z</time>
      </trkpt>
      <trkpt lat="47.67087" lon="6.50742">
        <ele>318.8</ele>
        <time>2022-08-02T16:02:41.000Z</time>
      </trkpt>
      <trkpt lat="47.6689" lon="6.51048">
        <ele>318.1</ele>
        <time>2022-08-02T16:03:47.000Z</time>
      </trkpt>
      <trkpt lat="47.66867" lon="6.51072">
        <ele>317.4</ele>
        <time>2022-08-02T16:03:53.000Z</time>
      </trkpt>
      <trkpt lat="47.6683" lon="6.51089">
        <ele>317.4</ele>
        <time>2022-08-02T16:04:01.000Z</time>
      </trkpt>
      <trkpt lat="47.66814" lon="6.51102">
        <ele>317.4</ele>
        <time>2022-08-02T16:04:05.000Z</time>
      </trkpt>
      <trkpt lat="47.66768" lon="6.51176">
        <ele>317.4</ele>
        <time>2022-08-02T16:04:21.000Z</time>
      </trkpt>
      <trkpt lat="47.66731" lon="6.51204">
        <ele>317.4</ele>
        <time>2022-08-02T16:04:34.000Z</time>
      </trkpt>
      <trkpt lat="47.66639" lon="6.51309">
        <ele>316.4</ele>
        <time>2022-08-02T16:05:02.000Z</time>
      </trkpt>
      <trkpt lat="47.66621" lon="6.51319">
        <ele>316.4</ele>
        <time>2022-08-02T16:05:07.000Z</time>
      </trkpt>
      <trkpt lat="47.6659" lon="6.5132">
        <ele>317.6</ele>
        <time>2022-08-02T16:05:16.000Z</time>
      </trkpt>
      <trkpt lat="47.6658" lon="6.51325">
        <ele>317.6</ele>
        <time>2022-08-02T16:05:20.000Z</time>
      </trkpt>
      <trkpt lat="47.66572" lon="6.51339">
        <ele>317.6</ele>
        <time>2022-08-02T16:05:25.000Z</time>
      </trkpt>
      <trkpt lat="47.66567" lon="6.51361">
        <ele>317.6</ele>
        <time>2022-08-02T16:05:30.000Z</time>
      </trkpt>
      <trkpt lat="47.66569" lon="6.51396">
        <ele>316.8</ele>
        <time>2022-08-02T16:05:37.000Z</time>
      </trkpt>
      <trkpt lat="47.6658" lon="6.51424">
        <ele>316.8</ele>
        <time>2022-08-02T16:05:44.000Z</time>
      </trkpt>
      <trkpt lat="47.66589" lon="6.51434">
        <ele>316.8</ele>
        <time>2022-08-02T16:05:49.000Z</time>
      </trkpt>
      <trkpt lat="47.66607" lon="6.51444">
        <ele>316.8</ele>
        <time>2022-08-02T16:05:56.000Z</time>
      </trkpt>
      <trkpt lat="47.66626" lon="6.51461">
        <ele>316.8</ele>
        <time>2022-08-02T16:06:01.000Z</time>
      </trkpt>
      <trkpt lat="47.66663" lon="6.51518">
        <ele>316.8</ele>
        <time>2022-08-02T16:06:14.000Z</time>
      </trkpt>
      <trkpt lat="47.66707" lon="6.51568">
        <ele>316.8</ele>
        <time>2022-08-02T16:06:29.000Z</time>
      </trkpt>
      <trkpt lat="47.66719" lon="6.51592">
        <ele>317.6</ele>
        <time>2022-08-02T16:06:34.000Z</time>
      </trkpt>
      <trkpt lat="47.66732" lon="6.51645">
        <ele>317.6</ele>
        <time>2022-08-02T16:06:45.000Z</time>
      </trkpt>
      <trkpt lat="47.6674" lon="6.51663">
        <ele>318.2</ele>
        <time>2022-08-02T16:06:50.000Z</time>
      </trkpt>
      <trkpt lat="47.66801" lon="6.51771">
        <ele>318.2</ele>
        <time>2022-08-02T16:07:14.000Z</time>
      </trkpt>
      <trkpt lat="47.66847" lon="6.51832">
        <ele>318.2</ele>
        <time>2022-08-02T16:07:28.000Z</time>
      </trkpt>
      <trkpt lat="47.6685" lon="6.51845">
        <ele>318.2</ele>
        <time>2022-08-02T16:07:31.000Z</time>
      </trkpt>
      <trkpt lat="47.66849" lon="6.51854">
        <ele>318.2</ele>
        <time>2022-08-02T16:07:33.000Z</time>
      </trkpt>
      <trkpt lat="47.6684" lon="6.51871">
        <ele>318.2</ele>
        <time>2022-08-02T16:07:37.000Z</time>
      </trkpt>
      <trkpt lat="47.66826" lon="6.51886">
        <ele>318.2</ele>
        <time>2022-08-02T16:07:43.000Z</time>
      </trkpt>
      <trkpt lat="47.66839" lon="6.51886">
        <ele>318.2</ele>
        <time>2022-08-02T16:07:52.000Z</time>
      </trkpt>
      <trkpt lat="47.66842" lon="6.5189">
        <ele>318.2</ele>
        <time>2022-08-02T16:07:55.000Z</time>
      </trkpt>
      <trkpt lat="47.66827" lon="6.51919">
        <ele>318.2</ele>
        <time>2022-08-02T16:08:05.000Z</time>
      </trkpt>
      <trkpt lat="47.66824" lon="6.51948">
        <ele>318.2</ele>
        <time>2022-08-02T16:08:12.000Z</time>
      </trkpt>
      <trkpt lat="47.66832" lon="6.51975">
        <ele>318.2</ele>
        <time>2022-08-02T16:08:19.000Z</time>
      </trkpt>
      <trkpt lat="47.66867" lon="6.52017">
        <ele>318.2</ele>
        <time>2022-08-02T16:08:33.000Z</time>
      </trkpt>
      <trkpt lat="47.66873" lon="6.52047">
        <ele>318.2</ele>
        <time>2022-08-02T16:08:39.000Z</time>
      </trkpt>
      <trkpt lat="47.66867" lon="6.5209">
        <ele>318.2</ele>
        <time>2022-08-02T16:08:47.000Z</time>
      </trkpt>
      <trkpt lat="47.66857" lon="6.52105">
        <ele>318.2</ele>
        <time>2022-08-02T16:08:52.000Z</time>
      </trkpt>
      <trkpt lat="47.66846" lon="6.52106">
        <ele>318.2</ele>
        <time>2022-08-02T16:08:56.000Z</time>
      </trkpt>
      <trkpt lat="47.66812" lon="6.52094">
        <ele>318.2</ele>
        <time>2022-08-02T16:09:07.000Z</time>
      </trkpt>
      <trkpt lat="47.66798" lon="6.52099">
        <ele>319.1</ele>
        <time>2022-08-02T16:09:12.000Z</time>
      </trkpt>
      <trkpt lat="47.66787" lon="6.52111">
        <ele>319.1</ele>
        <time>2022-08-02T16:09:16.000Z</time>
      </trkpt>
      <trkpt lat="47.66769" lon="6.52144">
        <ele>319.1</ele>
        <time>2022-08-02T16:09:23.000Z</time>
      </trkpt>
      <trkpt lat="47.66734" lon="6.52228">
        <ele>319.1</ele>
        <time>2022-08-02T16:09:39.000Z</time>
      </trkpt>
      <trkpt lat="47.66712" lon="6.52263">
        <ele>319.1</ele>
        <time>2022-08-02T16:09:47.000Z</time>
      </trkpt>
      <trkpt lat="47.66693" lon="6.52286">
        <ele>319.1</ele>
        <time>2022-08-02T16:09:53.000Z</time>
      </trkpt>
      <trkpt lat="47.66675" lon="6.52303">
        <ele>319.1</ele>
        <time>2022-08-02T16:09:58.000Z</time>
      </trkpt>
      <trkpt lat="47.66659" lon="6.52313">
        <ele>319.1</ele>
        <time>2022-08-02T16:10:02.000Z</time>
      </trkpt>
      <trkpt lat="47.66611" lon="6.52326">
        <ele>319.1</ele>
        <time>2022-08-02T16:10:13.000Z</time>
      </trkpt>
      <trkpt lat="47.66583" lon="6.52342">
        <ele>319.1</ele>
        <time>2022-08-02T16:10:21.000Z</time>
      </trkpt>
      <trkpt lat="47.66561" lon="6.52368">
        <ele>319.1</ele>
        <time>2022-08-02T16:10:28.000Z</time>
      </trkpt>
      <trkpt lat="47.66526" lon="6.52429">
        <ele>319.1</ele>
        <time>2022-08-02T16:10:41.000Z</time>
      </trkpt>
      <trkpt lat="47.66484" lon="6.52459">
        <ele>320</ele>
        <time>2022-08-02T16:10:56.000Z</time>
      </trkpt>
      <trkpt lat="47.66476" lon="6.52468">
        <ele>320</ele>
        <time>2022-08-02T16:11:00.000Z</time>
      </trkpt>
      <trkpt lat="47.66473" lon="6.52477">
        <ele>320</ele>
        <time>2022-08-02T16:11:03.000Z</time>
      </trkpt>
      <trkpt lat="47.66475" lon="6.52494">
        <ele>320</ele>
        <time>2022-08-02T16:11:07.000Z</time>
      </trkpt>
      <trkpt lat="47.66488" lon="6.52545">
        <ele>320.8</ele>
        <time>2022-08-02T16:11:18.000Z</time>
      </trkpt>
      <trkpt lat="47.665" lon="6.52569">
        <ele>320.8</ele>
        <time>2022-08-02T16:11:23.000Z</time>
      </trkpt>
      <trkpt lat="47.66544" lon="6.52637">
        <ele>320.8</ele>
        <time>2022-08-02T16:11:37.000Z</time>
      </trkpt>
      <trkpt lat="47.66561" lon="6.52675">
        <ele>320.8</ele>
        <time>2022-08-02T16:11:44.000Z</time>
      </trkpt>
      <trkpt lat="47.66572" lon="6.52719">
        <ele>320.8</ele>
        <time>2022-08-02T16:11:51.000Z</time>
      </trkpt>
      <trkpt lat="47.66572" lon="6.52752">
        <ele>321.4</ele>
        <time>2022-08-02T16:11:56.000Z</time>
      </trkpt>
      <trkpt lat="47.66562" lon="6.52789">
        <ele>321.4</ele>
        <time>2022-08-02T16:12:02.000Z</time>
      </trkpt>
      <trkpt lat="47.6652" lon="6.52869">
        <ele>320.8</ele>
        <time>2022-08-02T16:12:17.000Z</time>
      </trkpt>
      <trkpt lat="47.66483" lon="6.52955">
        <ele>321.4</ele>
        <time>2022-08-02T16:12:32.000Z</time>
      </trkpt>
      <trkpt lat="47.66451" lon="6.53052">
        <ele>321.4</ele>
        <time>2022-08-02T16:12:48.000Z</time>
      </trkpt>
      <trkpt lat="47.66411" lon="6.53205">
        <ele>320.9</ele>
        <time>2022-08-02T16:13:11.000Z</time>
      </trkpt>
      <trkpt lat="47.66395" lon="6.53254">
        <ele>320.9</ele>
        <time>2022-08-02T16:13:20.000Z</time>
      </trkpt>
      <trkpt lat="47.66396" lon="6.53273">
        <ele>320.9</ele>
        <time>2022-08-02T16:13:25.000Z</time>
      </trkpt>
      <trkpt lat="47.6641" lon="6.53284">
        <ele>320.9</ele>
        <time>2022-08-02T16:13:29.000Z</time>
      </trkpt>
      <trkpt lat="47.66449" lon="6.53288">
        <ele>321.7</ele>
        <time>2022-08-02T16:13:36.000Z</time>
      </trkpt>
      <trkpt lat="47.66453" lon="6.53332">
        <ele>321.7</ele>
        <time>2022-08-02T16:13:44.000Z</time>
      </trkpt>
      <trkpt lat="47.66465" lon="6.53363">
        <ele>321.7</ele>
        <time>2022-08-02T16:13:50.000Z</time>
      </trkpt>
      <trkpt lat="47.66504" lon="6.53419">
        <ele>322.4</ele>
        <time>2022-08-02T16:14:03.000Z</time>
      </trkpt>
      <trkpt lat="47.66567" lon="6.53519">
        <ele>322.4</ele>
        <time>2022-08-02T16:14:23.000Z</time>
      </trkpt>
      <trkpt lat="47.66615" lon="6.53615">
        <ele>323.1</ele>
        <time>2022-08-02T16:14:40.000Z</time>
      </trkpt>
      <trkpt lat="47.66649" lon="6.5367">
        <ele>323.1</ele>
        <time>2022-08-02T16:14:52.000Z</time>
      </trkpt>
      <trkpt lat="47.6665" lon="6.53682">
        <ele>323.1</ele>
        <time>2022-08-02T16:14:55.000Z</time>
      </trkpt>
      <trkpt lat="47.66646" lon="6.53694">
        <ele>323.1</ele>
        <time>2022-08-02T16:14:58.000Z</time>
      </trkpt>
      <trkpt lat="47.66614" lon="6.53736">
        <ele>324.1</ele>
        <time>2022-08-02T16:15:09.000Z</time>
      </trkpt>
      <trkpt lat="47.66591" lon="6.53758">
        <ele>324.1</ele>
        <time>2022-08-02T16:15:16.000Z</time>
      </trkpt>
      <trkpt lat="47.66553" lon="6.53777">
        <ele>322.6</ele>
        <time>2022-08-02T16:15:26.000Z</time>
      </trkpt>
      <trkpt lat="47.66545" lon="6.53787">
        <ele>322.6</ele>
        <time>2022-08-02T16:15:29.000Z</time>
      </trkpt>
      <trkpt lat="47.66543" lon="6.53795">
        <ele>322.6</ele>
        <time>2022-08-02T16:15:31.000Z</time>
      </trkpt>
      <trkpt lat="47.66544" lon="6.5381">
        <ele>322.6</ele>
        <time>2022-08-02T16:15:34.000Z</time>
      </trkpt>
      <trkpt lat="47.66549" lon="6.53827">
        <ele>322.6</ele>
        <time>2022-08-02T16:15:37.000Z</time>
      </trkpt>
      <trkpt lat="47.66628" lon="6.54017">
        <ele>322.6</ele>
        <time>2022-08-02T16:16:12.000Z</time>
      </trkpt>
      <trkpt lat="47.66647" lon="6.54051">
        <ele>323.2</ele>
        <time>2022-08-02T16:16:19.000Z</time>
      </trkpt>
      <trkpt lat="47.66686" lon="6.54096">
        <ele>323.2</ele>
        <time>2022-08-02T16:16:30.000Z</time>
      </trkpt>
      <trkpt lat="47.66734" lon="6.54164">
        <ele>323.2</ele>
        <time>2022-08-02T16:16:45.000Z</time>
      </trkpt>
      <trkpt lat="47.66756" lon="6.54186">
        <ele>323.2</ele>
        <time>2022-08-02T16:16:51.000Z</time>
      </trkpt>
      <trkpt lat="47.66785" lon="6.542">
        <ele>323.2</ele>
        <time>2022-08-02T16:16:59.000Z</time>
      </trkpt>
      <trkpt lat="47.66845" lon="6.54199">
        <ele>323.8</ele>
        <time>2022-08-02T16:17:15.000Z</time>
      </trkpt>
      <trkpt lat="47.6686" lon="6.54208">
        <ele>324.4</ele>
        <time>2022-08-02T16:17:20.000Z</time>
      </trkpt>
      <trkpt lat="47.66866" lon="6.54222">
        <ele>324.4</ele>
        <time>2022-08-02T16:17:24.000Z</time>
      </trkpt>
      <trkpt lat="47.66863" lon="6.54244">
        <ele>324.4</ele>
        <time>2022-08-02T16:17:29.000Z</time>
      </trkpt>
      <trkpt lat="47.66833" lon="6.54325">
        <ele>324.4</ele>
        <time>2022-08-02T16:17:44.000Z</time>
      </trkpt>
      <trkpt lat="47.66814" lon="6.54367">
        <ele>324.4</ele>
        <time>2022-08-02T16:17:52.000Z</time>
      </trkpt>
      <trkpt lat="47.66793" lon="6.544">
        <ele>324.4</ele>
        <time>2022-08-02T16:17:59.000Z</time>
      </trkpt>
      <trkpt lat="47.6676" lon="6.54431">
        <ele>324.4</ele>
        <time>2022-08-02T16:18:08.000Z</time>
      </trkpt>
      <trkpt lat="47.66655" lon="6.54492">
        <ele>326.2</ele>
        <time>2022-08-02T16:18:34.000Z</time>
      </trkpt>
      <trkpt lat="47.66646" lon="6.54501">
        <ele>326.2</ele>
        <time>2022-08-02T16:18:37.000Z</time>
      </trkpt>
      <trkpt lat="47.66642" lon="6.54521">
        <ele>327.3</ele>
        <time>2022-08-02T16:18:41.000Z</time>
      </trkpt>
      <trkpt lat="47.66639" lon="6.54626">
        <ele>323.8</ele>
        <time>2022-08-02T16:18:54.000Z</time>
      </trkpt>
      <trkpt lat="47.66645" lon="6.54674">
        <ele>323.8</ele>
        <time>2022-08-02T16:19:01.000Z</time>
      </trkpt>
      <trkpt lat="47.66654" lon="6.54696">
        <ele>323.8</ele>
        <time>2022-08-02T16:19:05.000Z</time>
      </trkpt>
      <trkpt lat="47.66665" lon="6.54714">
        <ele>324.5</ele>
        <time>2022-08-02T16:19:09.000Z</time>
      </trkpt>
      <trkpt lat="47.66706" lon="6.54753">
        <ele>324.5</ele>
        <time>2022-08-02T16:19:21.000Z</time>
      </trkpt>
      <trkpt lat="47.66731" lon="6.54764">
        <ele>324.5</ele>
        <time>2022-08-02T16:19:27.000Z</time>
      </trkpt>
      <trkpt lat="47.668" lon="6.54779">
        <ele>325</ele>
        <time>2022-08-02T16:19:43.000Z</time>
      </trkpt>
      <trkpt lat="47.66861" lon="6.54817">
        <ele>324.3</ele>
        <time>2022-08-02T16:19:59.000Z</time>
      </trkpt>
      <trkpt lat="47.66876" lon="6.54834">
        <ele>324.3</ele>
        <time>2022-08-02T16:20:04.000Z</time>
      </trkpt>
      <trkpt lat="47.66915" lon="6.54887">
        <ele>324.9</ele>
        <time>2022-08-02T16:20:17.000Z</time>
      </trkpt>
      <trkpt lat="47.66985" lon="6.54968">
        <ele>326.4</ele>
        <time>2022-08-02T16:20:37.000Z</time>
      </trkpt>
      <trkpt lat="47.6701" lon="6.54991">
        <ele>326.4</ele>
        <time>2022-08-02T16:20:44.000Z</time>
      </trkpt>
      <trkpt lat="47.67028" lon="6.54993">
        <ele>326.4</ele>
        <time>2022-08-02T16:20:49.000Z</time>
      </trkpt>
      <trkpt lat="47.6706" lon="6.54965">
        <ele>327.3</ele>
        <time>2022-08-02T16:20:58.000Z</time>
      </trkpt>
      <trkpt lat="47.67078" lon="6.54962">
        <ele>327.3</ele>
        <time>2022-08-02T16:21:03.000Z</time>
      </trkpt>
      <trkpt lat="47.67201" lon="6.55056">
        <ele>327.4</ele>
        <time>2022-08-02T16:21:39.000Z</time>
      </trkpt>
      <trkpt lat="47.67235" lon="6.55076">
        <ele>327.4</ele>
        <time>2022-08-02T16:21:49.000Z</time>
      </trkpt>
      <trkpt lat="47.6727" lon="6.5509">
        <ele>327.4</ele>
        <time>2022-08-02T16:21:58.000Z</time>
      </trkpt>
      <trkpt lat="47.67371" lon="6.5511">
        <ele>328.1</ele>
        <time>2022-08-02T16:22:23.000Z</time>
      </trkpt>
      <trkpt lat="47.67393" lon="6.55126">
        <ele>328.1</ele>
        <time>2022-08-02T16:22:29.000Z</time>
      </trkpt>
      <trkpt lat="47.67446" lon="6.55235">
        <ele>328.2</ele>
        <time>2022-08-02T16:22:55.000Z</time>
      </trkpt>
      <trkpt lat="47.67536" lon="6.55395">
        <ele>329</ele>
        <time>2022-08-02T16:23:32.000Z</time>
      </trkpt>
      <trkpt lat="47.67601" lon="6.55534">
        <ele>328.9</ele>
        <time>2022-08-02T16:24:02.000Z</time>
      </trkpt>
      <trkpt lat="47.67634" lon="6.5558">
        <ele>330.2</ele>
        <time>2022-08-02T16:24:14.000Z</time>
      </trkpt>
      <trkpt lat="47.67747" lon="6.55717">
        <ele>330.2</ele>
        <time>2022-08-02T16:24:57.000Z</time>
      </trkpt>
      <trkpt lat="47.67844" lon="6.55962">
        <ele>330.7</ele>
        <time>2022-08-02T16:25:53.000Z</time>
      </trkpt>
      <trkpt lat="47.67975" lon="6.56264">
        <ele>332.7</ele>
        <time>2022-08-02T16:27:00.000Z</time>
      </trkpt>
      <trkpt lat="47.68023" lon="6.5641">
        <ele>332.7</ele>
        <time>2022-08-02T16:27:32.000Z</time>
      </trkpt>
      <trkpt lat="47.68055" lon="6.56473">
        <ele>333.2</ele>
        <time>2022-08-02T16:27:48.000Z</time>
      </trkpt>
      <trkpt lat="47.68082" lon="6.5651">
        <ele>333.2</ele>
        <time>2022-08-02T16:28:00.000Z</time>
      </trkpt>
      <trkpt lat="47.68103" lon="6.56529">
        <ele>333.2</ele>
        <time>2022-08-02T16:28:08.000Z</time>
      </trkpt>
      <trkpt lat="47.6822" lon="6.566">
        <ele>334.3</ele>
        <time>2022-08-02T16:28:44.000Z</time>
      </trkpt>
      <trkpt lat="47.68255" lon="6.56624">
        <ele>334.3</ele>
        <time>2022-08-02T16:28:57.000Z</time>
      </trkpt>
      <trkpt lat="47.68274" lon="6.56642">
        <ele>334.3</ele>
        <time>2022-08-02T16:29:05.000Z</time>
      </trkpt>
      <trkpt lat="47.68304" lon="6.56679">
        <ele>334.3</ele>
        <time>2022-08-02T16:29:18.000Z</time>
      </trkpt>
      <trkpt lat="47.68325" lon="6.56715">
        <ele>334.3</ele>
        <time>2022-08-02T16:29:28.000Z</time>
      </trkpt>
      <trkpt lat="47.68383" lon="6.56847">
        <ele>335.7</ele>
        <time>2022-08-02T16:30:00.000Z</time>
      </trkpt>
      <trkpt lat="47.68395" lon="6.56859">
        <ele>335.7</ele>
        <time>2022-08-02T16:30:05.000Z</time>
      </trkpt>
      <trkpt lat="47.68414" lon="6.56867">
        <ele>335.7</ele>
        <time>2022-08-02T16:30:14.000Z</time>
      </trkpt>
      <trkpt lat="47.68422" lon="6.56883">
        <ele>335.7</ele>
        <time>2022-08-02T16:30:22.000Z</time>
      </trkpt>
      <trkpt lat="47.68439" lon="6.56938">
        <ele>335.7</ele>
        <time>2022-08-02T16:30:38.000Z</time>
      </trkpt>
      <trkpt lat="47.6844" lon="6.56953">
        <ele>335.7</ele>
        <time>2022-08-02T16:30:42.000Z</time>
      </trkpt>
      <trkpt lat="47.68434" lon="6.56964">
        <ele>336.3</ele>
        <time>2022-08-02T16:30:46.000Z</time>
      </trkpt>
      <trkpt lat="47.68414" lon="6.56981">
        <ele>336.3</ele>
        <time>2022-08-02T16:30:54.000Z</time>
      </trkpt>
      <trkpt lat="47.68399" lon="6.57003">
        <ele>336.3</ele>
        <time>2022-08-02T16:31:00.000Z</time>
      </trkpt>
      <trkpt lat="47.68384" lon="6.57044">
        <ele>336.3</ele>
        <time>2022-08-02T16:31:08.000Z</time>
      </trkpt>
      <trkpt lat="47.68378" lon="6.57077">
        <ele>336.3</ele>
        <time>2022-08-02T16:31:14.000Z</time>
      </trkpt>
      <trkpt lat="47.68381" lon="6.57123">
        <ele>336.8</ele>
        <time>2022-08-02T16:31:22.000Z</time>
      </trkpt>
      <trkpt lat="47.68397" lon="6.57199">
        <ele>338.3</ele>
        <time>2022-08-02T16:31:36.000Z</time>
      </trkpt>
      <trkpt lat="47.68395" lon="6.57235">
        <ele>338.3</ele>
        <time>2022-08-02T16:31:42.000Z</time>
      </trkpt>
      <trkpt lat="47.68385" lon="6.57253">
        <ele>338.3</ele>
        <time>2022-08-02T16:31:46.000Z</time>
      </trkpt>
      <trkpt lat="47.68368" lon="6.57259">
        <ele>338.3</ele>
        <time>2022-08-02T16:31:50.000Z</time>
      </trkpt>
      <trkpt lat="47.68351" lon="6.57255">
        <ele>338.3</ele>
        <time>2022-08-02T16:31:54.000Z</time>
      </trkpt>
      <trkpt lat="47.68313" lon="6.57229">
        <ele>338.8</ele>
        <time>2022-08-02T16:32:04.000Z</time>
      </trkpt>
      <trkpt lat="47.68294" lon="6.57221">
        <ele>338.8</ele>
        <time>2022-08-02T16:32:09.000Z</time>
      </trkpt>
      <trkpt lat="47.68276" lon="6.57218">
        <ele>339.7</ele>
        <time>2022-08-02T16:32:14.000Z</time>
      </trkpt>
      <trkpt lat="47.68262" lon="6.57228">
        <ele>339.7</ele>
        <time>2022-08-02T16:32:19.000Z</time>
      </trkpt>
      <trkpt lat="47.68258" lon="6.57238">
        <ele>339.7</ele>
        <time>2022-08-02T16:32:22.000Z</time>
      </trkpt>
      <trkpt lat="47.68255" lon="6.5726">
        <ele>341</ele>
        <time>2022-08-02T16:32:27.000Z</time>
      </trkpt>
      <trkpt lat="47.68256" lon="6.57368">
        <ele>344.4</ele>
        <time>2022-08-02T16:33:00.000Z</time>
      </trkpt>
      <trkpt lat="47.68252" lon="6.5742">
        <ele>345.9</ele>
        <time>2022-08-02T16:33:18.000Z</time>
      </trkpt>
      <trkpt lat="47.68258" lon="6.57448">
        <ele>346.5</ele>
        <time>2022-08-02T16:33:30.000Z</time>
      </trkpt>
      <trkpt lat="47.68291" lon="6.57548">
        <ele>348.9</ele>
        <time>2022-08-02T16:34:05.000Z</time>
      </trkpt>
      <trkpt lat="47.68304" lon="6.57596">
        <ele>349.6</ele>
        <time>2022-08-02T16:34:33.000Z</time>
      </trkpt>
      <trkpt lat="47.68299" lon="6.57591">
        <ele>349.6</ele>
        <time>2022-08-02T16:34:51.000Z</time>
      </trkpt>
      <trkpt lat="47.68299" lon="6.57587">
        <ele>349.6</ele>
        <time>2022-08-02T16:35:01.000Z</time>
      </trkpt>
      <trkpt lat="47.68303" lon="6.57589">
        <ele>349.6</ele>
        <time>2022-08-02T16:35:13.000Z</time>
      </trkpt>
      <trkpt lat="47.68301" lon="6.57598">
        <ele>349.6</ele>
        <time>2022-08-02T16:35:34.000Z</time>
      </trkpt>
      <trkpt lat="47.68312" lon="6.57634">
        <ele>349.6</ele>
        <time>2022-08-02T16:35:45.000Z</time>
      </trkpt>
      <trkpt lat="47.68332" lon="6.57725">
        <ele>351.1</ele>
        <time>2022-08-02T16:36:06.000Z</time>
      </trkpt>
      <trkpt lat="47.68351" lon="6.57775">
        <ele>351.1</ele>
        <time>2022-08-02T16:36:17.000Z</time>
      </trkpt>
      <trkpt lat="47.68383" lon="6.57844">
        <ele>352</ele>
        <time>2022-08-02T16:36:33.000Z</time>
      </trkpt>
      <trkpt lat="47.68406" lon="6.57901">
        <ele>352</ele>
        <time>2022-08-02T16:36:46.000Z</time>
      </trkpt>
      <trkpt lat="47.68458" lon="6.58055">
        <ele>353.2</ele>
        <time>2022-08-02T16:37:19.000Z</time>
      </trkpt>
      <trkpt lat="47.68485" lon="6.58171">
        <ele>353.8</ele>
        <time>2022-08-02T16:37:43.000Z</time>
      </trkpt>
      <trkpt lat="47.68492" lon="6.58184">
        <ele>353.8</ele>
        <time>2022-08-02T16:37:47.000Z</time>
      </trkpt>
      <trkpt lat="47.68513" lon="6.58206">
        <ele>352.7</ele>
        <time>2022-08-02T16:37:54.000Z</time>
      </trkpt>
      <trkpt lat="47.68525" lon="6.5823">
        <ele>351.7</ele>
        <time>2022-08-02T16:37:59.000Z</time>
      </trkpt>
      <trkpt lat="47.68566" lon="6.58409">
        <ele>352.8</ele>
        <time>2022-08-02T16:38:35.000Z</time>
      </trkpt>
      <trkpt lat="47.68568" lon="6.58442">
        <ele>352.8</ele>
        <time>2022-08-02T16:38:42.000Z</time>
      </trkpt>
      <trkpt lat="47.6856" lon="6.58544">
        <ele>355.5</ele>
        <time>2022-08-02T16:39:13.000Z</time>
      </trkpt>
      <trkpt lat="47.68562" lon="6.58587">
        <ele>356</ele>
        <time>2022-08-02T16:39:26.000Z</time>
      </trkpt>
      <trkpt lat="47.6856" lon="6.58602">
        <ele>356.1</ele>
        <time>2022-08-02T16:40:13.000Z</time>
      </trkpt>
      <trkpt lat="47.68548" lon="6.58595">
        <ele>356.1</ele>
        <time>2022-08-02T16:40:27.000Z</time>
      </trkpt>
      <trkpt lat="47.68556" lon="6.58592">
        <ele>355.6</ele>
        <time>2022-08-02T16:41:07.000Z</time>
      </trkpt>
      <trkpt lat="47.6856" lon="6.58596">
        <ele>356.2</ele>
        <time>2022-08-02T16:41:53.000Z</time>
      </trkpt>
      <trkpt lat="47.68559" lon="6.5859">
        <ele>356.2</ele>
        <time>2022-08-02T16:42:04.000Z</time>
      </trkpt>
      <trkpt lat="47.6855" lon="6.58591">
        <ele>355.6</ele>
        <time>2022-08-02T16:42:42.000Z</time>
      </trkpt>
      <trkpt lat="47.68551" lon="6.58608">
        <ele>356.2</ele>
        <time>2022-08-02T16:43:42.000Z</time>
      </trkpt>
      <trkpt lat="47.68548" lon="6.58608">
        <ele>356.2</ele>
        <time>2022-08-02T16:43:57.000Z</time>
      </trkpt>
      <trkpt lat="47.68555" lon="6.58608">
        <ele>356.2</ele>
        <time>2022-08-02T16:44:24.000Z</time>
      </trkpt>
      <trkpt lat="47.68548" lon="6.58607">
        <ele>356.2</ele>
        <time>2022-08-02T16:44:58.000Z</time>
      </trkpt>
      <trkpt lat="47.68551" lon="6.58609">
        <ele>356.2</ele>
        <time>2022-08-02T16:45:10.000Z</time>
      </trkpt>
      <trkpt lat="47.68548" lon="6.58613">
        <ele>356.2</ele>
        <time>2022-08-02T16:45:26.000Z</time>
      </trkpt>
      <trkpt lat="47.68551" lon="6.58612">
        <ele>356.2</ele>
        <time>2022-08-02T16:45:35.000Z</time>
      </trkpt>
      <trkpt lat="47.68552" lon="6.58605">
        <ele>356.2</ele>
        <time>2022-08-02T16:45:55.000Z</time>
      </trkpt>
      <trkpt lat="47.68556" lon="6.58611">
        <ele>355.4</ele>
        <time>2022-08-02T16:46:35.000Z</time>
      </trkpt>
      <trkpt lat="47.68558" lon="6.58606">
        <ele>355.4</ele>
        <time>2022-08-02T16:46:51.000Z</time>
      </trkpt>
      <trkpt lat="47.68554" lon="6.58609">
        <ele>355.4</ele>
        <time>2022-08-02T16:47:05.000Z</time>
      </trkpt>
      <trkpt lat="47.68556" lon="6.58613">
        <ele>355.4</ele>
        <time>2022-08-02T16:47:17.000Z</time>
      </trkpt>
      <trkpt lat="47.68562" lon="6.58602">
        <ele>355.4</ele>
        <time>2022-08-02T16:47:45.000Z</time>
      </trkpt>
      <trkpt lat="47.68552" lon="6.5862">
        <ele>355.4</ele>
        <time>2022-08-02T16:49:00.000Z</time>
      </trkpt>
      <trkpt lat="47.68553" lon="6.58622">
        <ele>355.4</ele>
        <time>2022-08-02T16:49:08.000Z</time>
      </trkpt>
      <trkpt lat="47.68557" lon="6.58616">
        <ele>356.1</ele>
        <time>2022-08-02T16:49:26.000Z</time>
      </trkpt>
      <trkpt lat="47.68554" lon="6.58615">
        <ele>356.1</ele>
        <time>2022-08-02T16:49:37.000Z</time>
      </trkpt>
      <trkpt lat="47.6856" lon="6.58606">
        <ele>356.1</ele>
        <time>2022-08-02T16:49:55.000Z</time>
      </trkpt>
      <trkpt lat="47.68559" lon="6.58593">
        <ele>356.1</ele>
        <time>2022-08-02T16:50:19.000Z</time>
      </trkpt>
      <trkpt lat="47.68557" lon="6.58594">
        <ele>356.1</ele>
        <time>2022-08-02T16:50:26.000Z</time>
      </trkpt>
      <trkpt lat="47.68555" lon="6.58601">
        <ele>356.1</ele>
        <time>2022-08-02T16:50:35.000Z</time>
      </trkpt>
      <trkpt lat="47.6856" lon="6.58606">
        <ele>356.1</ele>
        <time>2022-08-02T16:50:47.000Z</time>
      </trkpt>
      <trkpt lat="47.6856" lon="6.58599">
        <ele>356.1</ele>
        <time>2022-08-02T16:50:59.000Z</time>
      </trkpt>
      <trkpt lat="47.68562" lon="6.58608">
        <ele>356.1</ele>
        <time>2022-08-02T16:51:13.000Z</time>
      </trkpt>
      <trkpt lat="47.68563" lon="6.5866">
        <ele>356.1</ele>
        <time>2022-08-02T16:51:27.000Z</time>
      </trkpt>
      <trkpt lat="47.68571" lon="6.58743">
        <ele>356.1</ele>
        <time>2022-08-02T16:51:40.000Z</time>
      </trkpt>
      <trkpt lat="47.68571" lon="6.5882">
        <ele>356.1</ele>
        <time>2022-08-02T16:51:51.000Z</time>
      </trkpt>
      <trkpt lat="47.68567" lon="6.58846">
        <ele>356.8</ele>
        <time>2022-08-02T16:51:55.000Z</time>
      </trkpt>
      <trkpt lat="47.68557" lon="6.58882">
        <ele>356.8</ele>
        <time>2022-08-02T16:52:01.000Z</time>
      </trkpt>
      <trkpt lat="47.68541" lon="6.58919">
        <ele>357.4</ele>
        <time>2022-08-02T16:52:07.000Z</time>
      </trkpt>
      <trkpt lat="47.68519" lon="6.58954">
        <ele>355.3</ele>
        <time>2022-08-02T16:52:14.000Z</time>
      </trkpt>
      <trkpt lat="47.68515" lon="6.5897">
        <ele>356</ele>
        <time>2022-08-02T16:52:19.000Z</time>
      </trkpt>
      <trkpt lat="47.68528" lon="6.58994">
        <ele>356</ele>
        <time>2022-08-02T16:52:27.000Z</time>
      </trkpt>
      <trkpt lat="47.68567" lon="6.59036">
        <ele>357.7</ele>
        <time>2022-08-02T16:52:44.000Z</time>
      </trkpt>
      <trkpt lat="47.6861" lon="6.59063">
        <ele>360.1</ele>
        <time>2022-08-02T16:53:02.000Z</time>
      </trkpt>
      <trkpt lat="47.68625" lon="6.59079">
        <ele>361.5</ele>
        <time>2022-08-02T16:53:10.000Z</time>
      </trkpt>
      <trkpt lat="47.68633" lon="6.59098">
        <ele>362.5</ele>
        <time>2022-08-02T16:53:21.000Z</time>
      </trkpt>
      <trkpt lat="47.68655" lon="6.59134">
        <ele>363.9</ele>
        <time>2022-08-02T16:53:37.000Z</time>
      </trkpt>
      <trkpt lat="47.68799" lon="6.59359">
        <ele>371.2</ele>
        <time>2022-08-02T16:55:23.000Z</time>
      </trkpt>
      <trkpt lat="47.68822" lon="6.59404">
        <ele>372.4</ele>
        <time>2022-08-02T16:55:40.000Z</time>
      </trkpt>
      <trkpt lat="47.68834" lon="6.59441">
        <ele>373.6</ele>
        <time>2022-08-02T16:55:55.000Z</time>
      </trkpt>
      <trkpt lat="47.68843" lon="6.59448">
        <ele>373.6</ele>
        <time>2022-08-02T16:56:00.000Z</time>
      </trkpt>
      <trkpt lat="47.68878" lon="6.59459">
        <ele>373.6</ele>
        <time>2022-08-02T16:56:14.000Z</time>
      </trkpt>
      <trkpt lat="47.68897" lon="6.59469">
        <ele>372.8</ele>
        <time>2022-08-02T16:56:20.000Z</time>
      </trkpt>
      <trkpt lat="47.68909" lon="6.59482">
        <ele>372.8</ele>
        <time>2022-08-02T16:56:26.000Z</time>
      </trkpt>
      <trkpt lat="47.68913" lon="6.59499">
        <ele>373.4</ele>
        <time>2022-08-02T16:56:33.000Z</time>
      </trkpt>
      <trkpt lat="47.68911" lon="6.59525">
        <ele>374</ele>
        <time>2022-08-02T16:56:41.000Z</time>
      </trkpt>
      <trkpt lat="47.6888" lon="6.59694">
        <ele>381.2</ele>
        <time>2022-08-02T16:57:43.000Z</time>
      </trkpt>
      <trkpt lat="47.68869" lon="6.59724">
        <ele>382.3</ele>
        <time>2022-08-02T16:57:56.000Z</time>
      </trkpt>
      <trkpt lat="47.68863" lon="6.59767">
        <ele>383.9</ele>
        <time>2022-08-02T16:58:12.000Z</time>
      </trkpt>
      <trkpt lat="47.68838" lon="6.59878">
        <ele>387.3</ele>
        <time>2022-08-02T16:58:54.000Z</time>
      </trkpt>
      <trkpt lat="47.68817" lon="6.59997">
        <ele>388.4</ele>
        <time>2022-08-02T16:59:30.000Z</time>
      </trkpt>
      <trkpt lat="47.68787" lon="6.60108">
        <ele>391.2</ele>
        <time>2022-08-02T17:00:03.000Z</time>
      </trkpt>
      <trkpt lat="47.68785" lon="6.60161">
        <ele>392.8</ele>
        <time>2022-08-02T17:00:21.000Z</time>
      </trkpt>
      <trkpt lat="47.68772" lon="6.60204">
        <ele>394</ele>
        <time>2022-08-02T17:00:35.000Z</time>
      </trkpt>
      <trkpt lat="47.68752" lon="6.60311">
        <ele>396.3</ele>
        <time>2022-08-02T17:01:04.000Z</time>
      </trkpt>
      <trkpt lat="47.68736" lon="6.60377">
        <ele>396.3</ele>
        <time>2022-08-02T17:01:21.000Z</time>
      </trkpt>
      <trkpt lat="47.68719" lon="6.60486">
        <ele>394.6</ele>
        <time>2022-08-02T17:01:40.000Z</time>
      </trkpt>
      <trkpt lat="47.68676" lon="6.60682">
        <ele>383.7</ele>
        <time>2022-08-02T17:01:57.000Z</time>
      </trkpt>
      <trkpt lat="47.68663" lon="6.60726">
        <ele>382.5</ele>
        <time>2022-08-02T17:02:01.000Z</time>
      </trkpt>
      <trkpt lat="47.6865" lon="6.60755">
        <ele>381.6</ele>
        <time>2022-08-02T17:02:04.000Z</time>
      </trkpt>
      <trkpt lat="47.68581" lon="6.60848">
        <ele>379.1</ele>
        <time>2022-08-02T17:02:23.000Z</time>
      </trkpt>
      <trkpt lat="47.68584" lon="6.60839">
        <ele>379.1</ele>
        <time>2022-08-02T17:02:36.000Z</time>
      </trkpt>
      <trkpt lat="47.68596" lon="6.60829">
        <ele>379.7</ele>
        <time>2022-08-02T17:02:51.000Z</time>
      </trkpt>
      <trkpt lat="47.68584" lon="6.60841">
        <ele>379.7</ele>
        <time>2022-08-02T17:03:04.000Z</time>
      </trkpt>
      <trkpt lat="47.68581" lon="6.60857">
        <ele>379.7</ele>
        <time>2022-08-02T17:03:11.000Z</time>
      </trkpt>
      <trkpt lat="47.68589" lon="6.60864">
        <ele>379.7</ele>
        <time>2022-08-02T17:03:15.000Z</time>
      </trkpt>
      <trkpt lat="47.68599" lon="6.60866">
        <ele>379.7</ele>
        <time>2022-08-02T17:03:18.000Z</time>
      </trkpt>
      <trkpt lat="47.68689" lon="6.60857">
        <ele>374.8</ele>
        <time>2022-08-02T17:03:32.000Z</time>
      </trkpt>
      <trkpt lat="47.68723" lon="6.60863">
        <ele>373.3</ele>
        <time>2022-08-02T17:03:36.000Z</time>
      </trkpt>
      <trkpt lat="47.68757" lon="6.60885">
        <ele>371.1</ele>
        <time>2022-08-02T17:03:40.000Z</time>
      </trkpt>
      <trkpt lat="47.68834" lon="6.60956">
        <ele>367.1</ele>
        <time>2022-08-02T17:03:48.000Z</time>
      </trkpt>
      <trkpt lat="47.68891" lon="6.60991">
        <ele>363.5</ele>
        <time>2022-08-02T17:03:53.000Z</time>
      </trkpt>
      <trkpt lat="47.68947" lon="6.61012">
        <ele>361</ele>
        <time>2022-08-02T17:03:58.000Z</time>
      </trkpt>
      <trkpt lat="47.69096" lon="6.61043">
        <ele>359.5</ele>
        <time>2022-08-02T17:04:12.000Z</time>
      </trkpt>
      <trkpt lat="47.69124" lon="6.61054">
        <ele>354.5</ele>
        <time>2022-08-02T17:04:15.000Z</time>
      </trkpt>
      <trkpt lat="47.69178" lon="6.61091">
        <ele>354.5</ele>
        <time>2022-08-02T17:04:22.000Z</time>
      </trkpt>
      <trkpt lat="47.69199" lon="6.61096">
        <ele>353.8</ele>
        <time>2022-08-02T17:04:25.000Z</time>
      </trkpt>
      <trkpt lat="47.69277" lon="6.61075">
        <ele>353.1</ele>
        <time>2022-08-02T17:04:38.000Z</time>
      </trkpt>
      <trkpt lat="47.69338" lon="6.61083">
        <ele>353.8</ele>
        <time>2022-08-02T17:04:53.000Z</time>
      </trkpt>
      <trkpt lat="47.69358" lon="6.6108">
        <ele>353.8</ele>
        <time>2022-08-02T17:05:00.000Z</time>
      </trkpt>
      <trkpt lat="47.6943" lon="6.61031">
        <ele>353.8</ele>
        <time>2022-08-02T17:05:45.000Z</time>
      </trkpt>
      <trkpt lat="47.69499" lon="6.60975">
        <ele>353.8</ele>
        <time>2022-08-02T17:06:22.000Z</time>
      </trkpt>
      <trkpt lat="47.69566" lon="6.60946">
        <ele>354.3</ele>
        <time>2022-08-02T17:06:43.000Z</time>
      </trkpt>
      <trkpt lat="47.69585" lon="6.60945">
        <ele>354.3</ele>
        <time>2022-08-02T17:06:48.000Z</time>
      </trkpt>
      <trkpt lat="47.69596" lon="6.60951">
        <ele>354.3</ele>
        <time>2022-08-02T17:06:51.000Z</time>
      </trkpt>
      <trkpt lat="47.69605" lon="6.60966">
        <ele>354.3</ele>
        <time>2022-08-02T17:06:55.000Z</time>
      </trkpt>
      <trkpt lat="47.69633" lon="6.61055">
        <ele>354.3</ele>
        <time>2022-08-02T17:07:12.000Z</time>
      </trkpt>
      <trkpt lat="47.6965" lon="6.61191">
        <ele>355.8</ele>
        <time>2022-08-02T17:07:35.000Z</time>
      </trkpt>
      <trkpt lat="47.69662" lon="6.61259">
        <ele>355.8</ele>
        <time>2022-08-02T17:07:49.000Z</time>
      </trkpt>
      <trkpt lat="47.6967" lon="6.61269">
        <ele>355.8</ele>
        <time>2022-08-02T17:07:54.000Z</time>
      </trkpt>
      <trkpt lat="47.69695" lon="6.61273">
        <ele>355.8</ele>
        <time>2022-08-02T17:08:18.000Z</time>
      </trkpt>
    </trkseg>
  </trk>
</gpx>